Time;durP1;ratioP1;P1;durP2;ratioP2;P2;SDS_P1;SDS_P2;PMS_P1;PMS_P2;Temp;Humidity;BMP_temperature;BMP_pressure;BME280_temperature;BME280_humidity;BME280_pressure;Samples;Min_cycle;Max_cycle;Signal;HPM_P1;HPM_P2
2023/02/14 00:02:27;;;;;;;26.95;20.60;;;;;;;;;;10336823;28;20087;-68
2023/02/14 00:07:25;;;;;;;26.10;21.65;;;;;;;;;;10332891;28;20071;-66
2023/02/14 00:12:24;;;;;;;29.10;20.80;;;;;;;;;;10328433;28;20495;-66
2023/02/14 00:17:23;;;;;;;27.10;21.55;;;;;;;;;;10328054;28;20083;-68
2023/02/14 00:22:21;;;;;;;28.27;20.92;;;;;;;;;;10341662;28;20086;-68
2023/02/14 00:27:19;;;;;;;31.30;22.73;;;;;;;;;;10340178;28;20518;-68
2023/02/14 00:32:18;;;;;;;26.35;20.85;;;;;;;;;;10338223;28;20075;-68
2023/02/14 00:37:17;;;;;;;26.90;19.85;;;;;;;;;;10339778;28;20060;-68
2023/02/14 00:42:15;;;;;;;27.45;19.95;;;;;;;;;;10336663;28;20063;-68
2023/02/14 00:47:15;;;;;;;30.85;20.15;;;;;;;;;;10336267;28;20086;-68
2023/02/14 00:52:16;;;;;;;26.33;19.05;;;;;;;;;;10331455;28;20067;-68
2023/02/14 00:57:14;;;;;;;23.90;18.67;;;;;;;;;;10333345;28;20076;-67
2023/02/14 01:02:12;;;;;;;26.30;19.23;;;;;;;;;;10312328;28;20079;-67
2023/02/14 01:07:11;;;;;;;30.67;21.40;;;;;;;;;;10332531;28;20070;-67
2023/02/14 01:12:10;;;;;;;32.10;21.95;;;;;;;;;;10340474;28;20067;-68
2023/02/14 01:17:08;;;;;;;36.53;25.77;;;;;;;;;;10342996;28;20067;-68
2023/02/14 01:22:06;;;;;;;34.55;23.90;;;;;;;;;;10325958;28;20064;-68
2023/02/14 01:27:05;;;;;;;26.52;20.13;;;;;;;;;;10335464;28;20059;-68
2023/02/14 01:32:04;;;;;;;26.20;20.67;;;;;;;;;;10342119;28;20074;-68
2023/02/14 01:37:03;;;;;;;27.70;20.75;;;;;;;;;;10318409;28;20072;-68
2023/02/14 01:42:01;;;;;;;24.95;21.02;;;;;;;;;;10334565;28;20079;-69
2023/02/14 01:47:00;;;;;;;27.52;20.92;;;;;;;;;;10340037;28;20071;-69
2023/02/14 01:52:01;;;;;;;27.23;21.65;;;;;;;;;;10318222;28;20079;-69
2023/02/14 01:57:02;;;;;;;26.17;20.85;;;;;;;;;;10315305;28;20099;-69
2023/02/14 02:02:00;;;;;;;25.48;20.52;;;;;;;;;;10317337;28;20087;-68
2023/02/14 02:07:01;;;;;;;28.70;21.27;;;;;;;;;;10334903;28;20064;-68
2023/02/14 02:12:00;;;;;;;28.48;21.23;;;;;;;;;;10317855;28;20086;-68
2023/02/14 02:17:16;;;;;;;29.30;22.45;;;;;;;;;;10317902;28;20048;-67
2023/02/14 02:22:29;;;;;;;28.27;21.38;;;;;;;;;;10334395;28;20090;-67
2023/02/14 02:27:38;;;;;;;30.90;21.02;;;;;;;;;;10336193;28;20064;-68
2023/02/14 02:32:54;;;;;;;31.10;20.23;;;;;;;;;;10341042;28;20509;-68
2023/02/14 02:38:00;;;;;;;28.30;20.40;;;;;;;;;;10311221;28;20067;-68
2023/02/14 02:43:03;;;;;;;26.15;20.65;;;;;;;;;;10310943;28;20072;-68
2023/02/14 02:48:05;;;;;;;23.83;20.00;;;;;;;;;;10333899;28;20094;-68
2023/02/14 02:53:08;;;;;;;28.98;20.45;;;;;;;;;;10311471;28;20102;-67
2023/02/14 02:58:08;;;;;;;26.55;21.73;;;;;;;;;;10319952;28;20080;-67
2023/02/14 03:08:23;;;;;;;27.73;20.60;;;;;;;;;;10316002;28;20052;-68
2023/02/14 03:13:38;;;;;;;30.98;20.05;;;;;;;;;;10332230;28;20468;-68
2023/02/14 03:24:04;;;;;;;27.70;19.85;;;;;;;;;;10328593;28;20093;-68
2023/02/14 03:29:09;;;;;;;25.45;20.52;;;;;;;;;;10328525;28;20083;-69
2023/02/14 03:34:11;;;;;;;28.77;20.50;;;;;;;;;;10328158;28;20071;-68
2023/02/14 03:39:14;;;;;;;25.73;20.02;;;;;;;;;;10330740;28;20072;-68
2023/02/14 03:44:13;;;;;;;53.97;33.10;;;;;;;;;;10311029;28;20037;-68
2023/02/14 03:49:16;;;;;;;36.30;26.95;;;;;;;;;;10313784;28;20084;-67
2023/02/14 03:54:16;;;;;;;37.45;24.92;;;;;;;;;;10330599;28;20079;-67
2023/02/14 03:59:16;;;;;;;44.13;27.65;;;;;;;;;;10334118;28;20064;-67
2023/02/14 04:04:15;;;;;;;42.53;24.98;;;;;;;;;;10328623;28;20075;-67
2023/02/14 04:09:15;;;;;;;26.15;21.02;;;;;;;;;;10331862;28;20082;-68
2023/02/14 04:14:13;;;;;;;31.27;23.55;;;;;;;;;;10330373;28;20080;-68
2023/02/14 04:19:23;;;;;;;30.38;23.98;;;;;;;;;;10330023;28;20094;-68
2023/02/14 04:24:23;;;;;;;28.88;22.75;;;;;;;;;;10311450;28;20076;-68
2023/02/14 04:29:21;;;;;;;31.88;25.30;;;;;;;;;;10332156;28;20080;-68
2023/02/14 04:34:19;;;;;;;39.88;29.33;;;;;;;;;;10334396;28;20978;-68
2023/02/14 04:39:17;;;;;;;29.92;24.05;;;;;;;;;;10327600;28;20536;-68
2023/02/14 04:44:18;;;;;;;33.38;26.27;;;;;;;;;;10336627;28;20075;-68
2023/02/14 04:49:17;;;;;;;32.75;24.30;;;;;;;;;;10333272;28;20505;-68
2023/02/14 04:54:15;;;;;;;27.80;21.75;;;;;;;;;;10334836;28;20075;-68
2023/02/14 04:59:13;;;;;;;27.55;21.60;;;;;;;;;;10338786;28;20067;-68
2023/02/14 05:04:13;;;;;;;32.08;24.08;;;;;;;;;;10337858;28;20087;-68
2023/02/14 05:09:11;;;;;;;41.22;30.92;;;;;;;;;;10335265;28;20198;-68
2023/02/14 05:14:09;;;;;;;65.85;47.33;;;;;;;;;;10332094;28;20514;-68
2023/02/14 05:19:07;;;;;;;32.58;24.92;;;;;;;;;;10333600;28;20087;-68
2023/02/14 05:24:07;;;;;;;46.78;34.13;;;;;;;;;;10336037;28;20056;-68
2023/02/14 05:29:05;;;;;;;33.17;24.88;;;;;;;;;;10341953;28;20076;-68
2023/02/14 05:34:03;;;;;;;34.08;25.65;;;;;;;;;;10344617;28;20113;-68
2023/02/14 05:39:02;;;;;;;28.95;24.08;;;;;;;;;;10328597;28;20496;-67
2023/02/14 05:44:01;;;;;;;29.67;24.13;;;;;;;;;;10336020;28;20068;-67
2023/02/14 05:48:59;;;;;;;37.75;27.02;;;;;;;;;;10333557;28;20075;-68
2023/02/14 05:53:59;;;;;;;31.65;24.38;;;;;;;;;;10328807;28;20096;-67
2023/02/14 05:58:58;;;;;;;36.15;25.05;;;;;;;;;;10332445;28;20060;-67
2023/02/14 06:03:57;;;;;;;34.00;26.38;;;;;;;;;;10335616;28;20079;-68
2023/02/14 06:08:55;;;;;;;32.60;24.13;;;;;;;;;;10334474;28;20072;-67
2023/02/14 06:13:54;;;;;;;35.13;24.35;;;;;;;;;;10335183;28;20086;-67
2023/02/14 06:18:52;;;;;;;32.78;26.58;;;;;;;;;;10335454;28;20064;-67
2023/02/14 06:23:51;;;;;;;44.85;30.20;;;;;;;;;;10336146;28;20071;-67
2023/02/14 06:28:52;;;;;;;35.97;27.25;;;;;;;;;;10340053;28;20091;-67
2023/02/14 06:33:50;;;;;;;35.90;26.83;;;;;;;;;;10338996;28;20078;-68
2023/02/14 06:38:49;;;;;;;40.90;30.48;;;;;;;;;;10342861;28;20072;-68
2023/02/14 06:43:48;;;;;;;49.72;35.25;;;;;;;;;;10331382;28;20082;-67
2023/02/14 06:48:47;;;;;;;40.90;30.95;;;;;;;;;;10332323;28;20503;-67
2023/02/14 06:53:45;;;;;;;47.63;33.42;;;;;;;;;;10334738;28;20484;-67
2023/02/14 06:58:43;;;;;;;40.13;29.55;;;;;;;;;;10333890;28;20666;-67
2023/02/14 07:03:44;;;;;;;42.03;30.35;;;;;;;;;;10336721;28;20080;-68
2023/02/14 07:08:42;;;;;;;41.45;29.90;;;;;;;;;;10343458;28;20068;-68
2023/02/14 07:13:42;;;;;;;37.50;27.30;;;;;;;;;;10335127;28;20067;-68
2023/02/14 07:18:40;;;;;;;41.08;30.40;;;;;;;;;;10335491;28;20075;-67
2023/02/14 07:23:40;;;;;;;47.25;32.63;;;;;;;;;;10325598;28;20068;-66
2023/02/14 07:28:38;;;;;;;46.17;30.38;;;;;;;;;;10328470;28;20083;-68
2023/02/14 07:33:36;;;;;;;51.78;32.97;;;;;;;;;;10338638;28;20119;-67
2023/02/14 07:38:35;;;;;;;42.03;31.70;;;;;;;;;;10331820;28;20672;-68
2023/02/14 07:43:34;;;;;;;38.30;28.40;;;;;;;;;;10317238;28;20496;-68
2023/02/14 07:48:32;;;;;;;40.33;30.73;;;;;;;;;;10329132;28;20071;-68
2023/02/14 07:53:31;;;;;;;45.90;32.65;;;;;;;;;;10330546;28;20075;-68
2023/02/14 07:58:29;;;;;;;46.72;35.78;;;;;;;;;;10332183;28;20067;-66
2023/02/14 08:03:29;;;;;;;40.35;29.23;;;;;;;;;;10336271;28;20076;-68
2023/02/14 08:08:29;;;;;;;40.67;29.27;;;;;;;;;;10332107;28;20083;-68
2023/02/14 08:13:27;;;;;;;35.85;28.30;;;;;;;;;;10323147;28;20076;-68
2023/02/14 08:18:26;;;;;;;43.70;31.90;;;;;;;;;;10331993;28;20083;-69
2023/02/14 08:23:26;;;;;;;43.05;30.80;;;;;;;;;;10335649;28;20068;-68
2023/02/14 08:28:25;;;;;;;45.50;35.00;;;;;;;;;;10336475;28;20071;-68
2023/02/14 08:33:23;;;;;;;39.95;31.80;;;;;;;;;;10335423;28;20063;-68
2023/02/14 08:38:21;;;;;;;36.75;27.95;;;;;;;;;;10335316;28;20078;-68
2023/02/14 08:43:21;;;;;;;49.42;36.25;;;;;;;;;;10337114;28;20482;-68
2023/02/14 08:48:19;;;;;;;41.55;34.90;;;;;;;;;;10342856;28;20078;-65
2023/02/14 08:53:17;;;;;;;42.17;30.45;;;;;;;;;;10336854;28;20080;-68
2023/02/14 08:58:15;;;;;;;37.58;29.73;;;;;;;;;;10339070;28;20501;-67
2023/02/14 09:03:15;;;;;;;38.30;28.33;;;;;;;;;;10341693;28;20079;-68
2023/02/14 09:08:13;;;;;;;36.95;26.75;;;;;;;;;;10339859;28;20521;-68
2023/02/14 09:13:11;;;;;;;44.47;30.25;;;;;;;;;;10339169;28;20075;-68
2023/02/14 09:18:09;;;;;;;38.50;29.98;;;;;;;;;;10337922;28;20119;-69
2023/02/14 09:23:09;;;;;;;34.67;27.35;;;;;;;;;;10339501;28;20060;-68
2023/02/14 09:28:07;;;;;;;34.72;24.63;;;;;;;;;;10339976;28;20474;-68
2023/02/14 09:33:06;;;;;;;29.77;24.33;;;;;;;;;;10331021;28;20500;-68
2023/02/14 09:38:19;;;;;;;29.65;24.95;;;;;;;;;;10332643;28;20072;-68
2023/02/14 09:43:23;;;;;;;34.58;25.98;;;;;;;;;;10337686;28;20570;-68
2023/02/14 09:48:25;;;;;;;32.10;22.40;;;;;;;;;;10335325;28;20083;-68
2023/02/14 09:53:26;;;;;;;31.65;24.80;;;;;;;;;;10337005;28;20085;-69
2023/02/14 09:58:29;;;;;;;30.88;22.88;;;;;;;;;;10337729;28;20094;-68
2023/02/14 10:03:44;;;;;;;35.20;25.83;;;;;;;;;;10344066;28;20098;-68
2023/02/14 10:08:51;;;;;;;30.08;25.27;;;;;;;;;;10330598;28;20072;-68
2023/02/14 10:13:51;;;;;;;30.90;22.83;;;;;;;;;;10337945;28;20513;-68
2023/02/14 10:18:52;;;;;;;29.08;22.65;;;;;;;;;;10335068;28;20068;-69
2023/02/14 10:23:51;;;;;;;28.60;22.90;;;;;;;;;;10335903;28;20079;-68
2023/02/14 10:28:53;;;;;;;28.17;23.63;;;;;;;;;;10335525;28;20075;-68
2023/02/14 10:33:52;;;;;;;33.17;23.98;;;;;;;;;;10339744;28;20083;-68
2023/02/14 10:38:59;;;;;;;44.08;29.45;;;;;;;;;;10331617;28;20086;-69
2023/02/14 10:44:04;;;;;;;31.33;24.02;;;;;;;;;;10334646;28;20082;-68
2023/02/14 10:49:10;;;;;;;30.20;24.48;;;;;;;;;;10332577;28;20063;-68
2023/02/14 10:54:15;;;;;;;39.85;31.58;;;;;;;;;;10331033;28;20068;-68
2023/02/14 10:59:20;;;;;;;32.40;27.05;;;;;;;;;;10333886;28;20064;-68
2023/02/14 11:04:20;;;;;;;28.45;24.13;;;;;;;;;;10330354;28;20102;-68
2023/02/14 11:09:18;;;;;;;33.40;26.58;;;;;;;;;;10336865;28;20079;-67
2023/02/14 11:14:26;;;;;;;32.30;24.90;;;;;;;;;;10334600;28;20076;-67
2023/02/14 11:19:26;;;;;;;30.80;23.63;;;;;;;;;;10336432;28;20666;-67
2023/02/14 11:24:32;;;;;;;30.42;23.67;;;;;;;;;;10334337;28;20505;-68
2023/02/14 11:29:32;;;;;;;38.10;28.90;;;;;;;;;;10331846;28;20056;-68
2023/02/14 11:34:35;;;;;;;31.48;24.63;;;;;;;;;;10331810;28;20505;-68
2023/02/14 11:39:34;;;;;;;34.00;25.67;;;;;;;;;;10331073;28;20479;-67
2023/02/14 11:44:36;;;;;;;27.30;22.33;;;;;;;;;;10317321;28;20044;-68
2023/02/14 11:49:35;;;;;;;25.58;19.27;;;;;;;;;;10328437;28;20068;-68
2023/02/14 11:54:34;;;;;;;33.30;22.27;;;;;;;;;;10331149;28;20502;-68
2023/02/14 11:59:35;;;;;;;46.10;31.95;;;;;;;;;;10332037;28;20068;-68
2023/02/14 12:04:36;;;;;;;35.25;26.80;;;;;;;;;;10331504;28;20084;-67
2023/02/14 12:09:43;;;;;;;50.50;35.05;;;;;;;;;;10333372;28;20064;-67
2023/02/14 12:14:43;;;;;;;35.42;24.98;;;;;;;;;;10332677;28;20080;-69
2023/02/14 12:19:44;;;;;;;35.85;29.30;;;;;;;;;;10334042;28;20536;-68
2023/02/14 12:24:47;;;;;;;42.70;31.75;;;;;;;;;;10332906;28;20082;-68
2023/02/14 12:29:48;;;;;;;37.88;29.33;;;;;;;;;;10332108;28;20461;-68
2023/02/14 12:34:47;;;;;;;41.72;32.78;;;;;;;;;;10328781;28;20072;-68
2023/02/14 12:39:51;;;;;;;38.08;30.52;;;;;;;;;;10333866;28;20080;-68
2023/02/14 12:44:53;;;;;;;36.33;28.97;;;;;;;;;;10330726;28;20485;-67
2023/02/14 12:50:14;;;;;;;39.05;28.90;;;;;;;;;;10327576;28;20094;-67
2023/02/14 12:55:28;;;;;;;36.83;28.67;;;;;;;;;;10330219;28;20181;-68
2023/02/14 13:00:32;;;;;;;45.30;31.88;;;;;;;;;;10312105;28;20174;-68
2023/02/14 13:05:34;;;;;;;43.08;31.83;;;;;;;;;;10335981;28;20100;-69
2023/02/14 13:10:45;;;;;;;39.22;32.13;;;;;;;;;;10336709;28;20072;-68
2023/02/14 13:15:47;;;;;;;40.55;30.08;;;;;;;;;;10317778;28;20083;-69
2023/02/14 13:20:49;;;;;;;40.67;30.40;;;;;;;;;;10341021;28;20068;-68
2023/02/14 13:25:51;;;;;;;38.85;31.25;;;;;;;;;;10336638;28;20082;-67
2023/02/14 13:30:51;;;;;;;46.45;34.33;;;;;;;;;;10339128;28;20066;-67
2023/02/14 13:35:49;;;;;;;46.47;33.50;;;;;;;;;;10335154;28;20479;-67
2023/02/14 13:40:48;;;;;;;42.30;32.50;;;;;;;;;;10337058;28;20080;-67
2023/02/14 13:46:04;;;;;;;39.28;31.25;;;;;;;;;;10335023;28;20064;-67
2023/02/14 13:51:04;;;;;;;37.80;30.25;;;;;;;;;;10331978;28;20079;-68
2023/02/14 13:56:03;;;;;;;43.95;34.10;;;;;;;;;;10337177;28;20528;-67
2023/02/14 14:01:27;;;;;;;38.47;29.58;;;;;;;;;;10333608;28;20078;-67
2023/02/14 14:06:28;;;;;;;39.13;30.80;;;;;;;;;;10292081;28;20131;-67
2023/02/14 14:11:54;;;;;;;47.92;35.65;;;;;;;;;;10281578;28;20040;-67
2023/02/14 14:16:56;;;;;;;33.20;28.07;;;;;;;;;;10295584;28;20076;-67
2023/02/14 14:22:01;;;;;;;34.85;28.38;;;;;;;;;;10285532;28;20076;-68
2023/02/14 14:26:59;;;;;;;;;;;;;;;;;;10293209;28;20087;-67
2023/02/14 14:31:58;;;;;;;39.63;29.17;;;;;;;;;;10278199;28;19959;-67
2023/02/14 14:37:04;;;;;;;42.88;28.10;;;;;;;;;;10296280;28;20072;-68
2023/02/14 14:42:06;;;;;;;37.03;28.33;;;;;;;;;;10294356;28;20047;-68
2023/02/14 14:47:04;;;;;;;40.95;31.88;;;;;;;;;;10293127;28;20069;-68
2023/02/14 14:52:04;;;;;;;39.60;31.30;;;;;;;;;;10295171;28;20078;-68
2023/02/14 14:57:02;;;;;;;59.80;41.90;;;;;;;;;;10296998;28;20080;-67
2023/02/14 15:02:01;;;;;;;74.53;49.85;;;;;;;;;;10297472;28;20075;-68
2023/02/14 15:07:19;;;;;;;156.30;107.35;;;;;;;;;;10333275;28;20071;-68
2023/02/14 15:17:37;;;;;;;61.33;46.25;;;;;;;;;;10334458;28;20091;-68
2023/02/14 15:22:40;;;;;;;69.13;52.42;;;;;;;;;;10334198;28;20494;-69
2023/02/14 15:27:40;;;;;;;102.65;72.22;;;;;;;;;;10333662;28;20470;-69
2023/02/14 15:32:38;;;;;;;91.75;69.47;;;;;;;;;;10332346;28;20545;-69
2023/02/14 15:37:38;;;;;;;73.35;54.00;;;;;;;;;;10332068;28;20075;-68
2023/02/14 15:42:40;;;;;;;109.22;71.88;;;;;;;;;;10334318;28;20075;-67
2023/02/14 15:47:38;;;;;;;151.98;99.85;;;;;;;;;;10338858;28;20552;-68
2023/02/14 15:52:41;;;;;;;233.65;145.68;;;;;;;;;;10340904;28;20056;-68
2023/02/14 15:57:39;;;;;;;547.10;354.20;;;;;;;;;;10331114;28;20103;-67
2023/02/14 16:02:40;;;;;;;189.05;133.02;;;;;;;;;;10332286;28;20086;-68
2023/02/14 16:07:38;;;;;;;111.00;78.00;;;;;;;;;;10327437;28;20067;-67
2023/02/14 16:12:39;;;;;;;108.00;78.30;;;;;;;;;;10326252;28;20492;-67
2023/02/14 16:17:37;;;;;;;180.32;112.65;;;;;;;;;;10329120;28;20079;-68
2023/02/14 16:22:35;;;;;;;146.15;94.88;;;;;;;;;;10335159;28;20449;-69
2023/02/14 16:27:33;;;;;;;132.55;90.63;;;;;;;;;;10325095;28;20072;-68
2023/02/14 16:32:33;;;;;;;169.98;124.20;;;;;;;;;;10346187;28;20079;-67
2023/02/14 16:37:32;;;;;;;229.20;148.90;;;;;;;;;;10335602;28;20068;-67
2023/02/14 16:42:31;;;;;;;248.38;141.02;;;;;;;;;;10340109;28;20486;-67
2023/02/14 16:47:29;;;;;;;181.70;122.05;;;;;;;;;;10341335;28;20111;-68
2023/02/14 16:52:29;;;;;;;272.75;138.38;;;;;;;;;;10341305;28;20508;-67
2023/02/14 16:57:29;;;;;;;91.10;63.45;;;;;;;;;;10336250;28;20185;-68
2023/02/14 17:02:27;;;;;;;79.30;50.78;;;;;;;;;;10335270;28;20535;-68
2023/02/14 17:07:26;;;;;;;114.43;86.72;;;;;;;;;;10336606;28;20067;-67
2023/02/14 17:12:28;;;;;;;73.57;53.90;;;;;;;;;;10337975;28;20641;-68
2023/02/14 17:17:26;;;;;;;101.07;74.03;;;;;;;;;;10339091;28;20091;-68
2023/02/14 17:22:24;;;;;;;101.15;73.35;;;;;;;;;;10331559;28;20528;-68
2023/02/14 17:27:22;;;;;;;104.03;73.53;;;;;;;;;;10335404;28;20071;-68
2023/02/14 17:32:22;;;;;;;220.10;146.65;;;;;;;;;;10318464;28;20056;-67
2023/02/14 17:37:20;;;;;;;128.85;86.00;;;;;;;;;;10335088;28;20492;-67
2023/02/14 17:42:18;;;;;;;81.00;54.22;;;;;;;;;;10332482;28;20075;-67
2023/02/14 17:47:17;;;;;;;95.60;53.33;;;;;;;;;;10340045;28;20063;-68
2023/02/14 17:52:17;;;;;;;78.45;48.58;;;;;;;;;;10334900;28;20632;-67
2023/02/14 17:57:15;;;;;;;130.65;72.15;;;;;;;;;;10332833;28;20072;-67
2023/02/14 18:02:13;;;;;;;163.60;87.88;;;;;;;;;;10331595;28;20072;-68
2023/02/14 18:07:11;;;;;;;251.52;120.80;;;;;;;;;;10342764;28;20540;-67
2023/02/14 18:12:11;;;;;;;158.10;82.90;;;;;;;;;;10344722;28;20087;-68
2023/02/14 18:17:12;;;;;;;440.73;219.80;;;;;;;;;;10335089;28;20068;-68
2023/02/14 18:22:10;;;;;;;459.77;235.00;;;;;;;;;;10333253;28;20075;-68
2023/02/14 18:27:08;;;;;;;196.50;111.55;;;;;;;;;;10331766;28;20067;-67
2023/02/14 18:32:08;;;;;;;115.93;75.85;;;;;;;;;;10337739;28;20083;-67
2023/02/14 18:37:06;;;;;;;88.45;58.75;;;;;;;;;;10337715;28;20072;-66
2023/02/14 18:42:05;;;;;;;154.23;92.53;;;;;;;;;;10337387;28;20063;-67
2023/02/14 18:47:05;;;;;;;251.70;145.43;;;;;;;;;;10333261;28;20064;-67
2023/02/14 18:52:05;;;;;;;117.78;70.28;;;;;;;;;;10314938;28;20072;-67
2023/02/14 18:57:03;;;;;;;157.77;101.20;;;;;;;;;;10335692;28;20083;-67
2023/02/14 19:02:02;;;;;;;268.63;162.05;;;;;;;;;;10335095;28;20110;-67
2023/02/14 19:07:03;;;;;;;75.32;47.45;;;;;;;;;;10334416;28;20126;-66
2023/02/14 19:12:02;;;;;;;57.15;34.42;;;;;;;;;;10340050;28;20067;-66
2023/02/14 19:17:01;;;;;;;84.90;45.90;;;;;;;;;;10342815;28;20087;-67
2023/02/14 19:21:59;;;;;;;64.90;45.25;;;;;;;;;;10345991;28;20062;-67
2023/02/14 19:26:57;;;;;;;52.22;36.85;;;;;;;;;;10332832;28;20067;-68
2023/02/14 19:31:58;;;;;;;65.25;47.40;;;;;;;;;;10330914;28;20101;-68
2023/02/14 19:36:57;;;;;;;73.70;49.95;;;;;;;;;;10323356;28;20072;-66
2023/02/14 19:41:56;;;;;;;68.55;45.33;;;;;;;;;;10330567;28;20075;-66
2023/02/14 19:46:55;;;;;;;71.57;41.92;;;;;;;;;;10326591;28;20514;-66
2023/02/14 19:51:55;;;;;;;52.38;35.33;;;;;;;;;;10331053;28;20082;-67
2023/02/14 19:56:54;;;;;;;42.97;31.77;;;;;;;;;;10336934;28;20485;-67
2023/02/14 20:01:54;;;;;;;37.15;26.98;;;;;;;;;;10332503;28;20656;-67
2023/02/14 20:06:52;;;;;;;35.00;25.85;;;;;;;;;;10335350;28;20064;-67
2023/02/14 20:11:53;;;;;;;31.35;23.13;;;;;;;;;;10325181;28;20068;-67
2023/02/14 20:16:52;;;;;;;37.45;30.90;;;;;;;;;;10338920;28;20071;-66
2023/02/14 20:21:50;;;;;;;26.92;22.17;;;;;;;;;;10339518;28;20083;-66
2023/02/14 20:26:49;;;;;;;30.15;22.15;;;;;;;;;;10330248;28;20584;-67
2023/02/14 20:31:49;;;;;;;31.85;24.77;;;;;;;;;;10330154;28;20072;-65
2023/02/14 20:36:51;;;;;;;31.38;24.05;;;;;;;;;;10337992;28;20064;-66
2023/02/14 20:41:50;;;;;;;37.72;27.40;;;;;;;;;;10336854;28;20075;-67
2023/02/14 20:46:51;;;;;;;32.88;25.42;;;;;;;;;;10340951;28;20075;-68
2023/02/14 20:51:49;;;;;;;33.10;26.27;;;;;;;;;;10336198;28;20060;-66
2023/02/14 20:56:49;;;;;;;42.05;30.70;;;;;;;;;;10330945;28;20087;-66
2023/02/14 21:01:47;;;;;;;41.08;30.92;;;;;;;;;;10330098;28;20470;-67
2023/02/14 21:06:47;;;;;;;48.90;38.47;;;;;;;;;;10328628;28;20075;-66
2023/02/14 21:11:46;;;;;;;38.67;29.67;;;;;;;;;;10328723;28;20064;-65
2023/02/14 21:16:44;;;;;;;32.65;25.83;;;;;;;;;;10329651;28;20067;-67
2023/02/14 21:21:42;;;;;;;57.40;38.28;;;;;;;;;;10330019;28;20068;-67
2023/02/14 21:26:42;;;;;;;32.05;23.95;;;;;;;;;;10333150;28;20102;-66
2023/02/14 21:31:41;;;;;;;28.92;22.77;;;;;;;;;;10332801;28;20063;-67
2023/02/14 21:36:39;;;;;;;32.40;25.40;;;;;;;;;;10334800;28;20494;-67
2023/02/14 21:41:37;;;;;;;78.68;45.85;;;;;;;;;;10331274;28;20083;-67
2023/02/14 21:46:39;;;;;;;79.63;45.90;;;;;;;;;;10334338;28;20469;-66
2023/02/14 21:51:38;;;;;;;309.10;136.85;;;;;;;;;;10337136;28;20079;-67
2023/02/14 21:56:37;;;;;;;150.15;70.35;;;;;;;;;;10335356;28;20104;-67
2023/02/14 22:01:38;;;;;;;206.43;96.82;;;;;;;;;;10335426;28;20462;-67
2023/02/14 22:06:37;;;;;;;304.50;143.98;;;;;;;;;;10333053;28;20083;-67
2023/02/14 22:11:35;;;;;;;312.83;166.73;;;;;;;;;;10336152;28;20079;-66
2023/02/14 22:16:35;;;;;;;154.20;87.13;;;;;;;;;;10334421;28;20502;-66
2023/02/14 22:21:35;;;;;;;73.82;46.90;;;;;;;;;;10335431;28;20074;-66
2023/02/14 22:26:37;;;;;;;74.13;45.92;;;;;;;;;;10333683;28;20071;-66
2023/02/14 22:31:36;;;;;;;71.47;42.05;;;;;;;;;;10333354;28;20072;-66
2023/02/14 22:36:36;;;;;;;71.28;45.65;;;;;;;;;;10332738;28;20076;-66
2023/02/14 22:41:36;;;;;;;54.72;40.25;;;;;;;;;;10333399;28;20076;-66
2023/02/14 22:46:36;;;;;;;33.03;25.95;;;;;;;;;;10334279;28;20055;-66
2023/02/14 22:51:36;;;;;;;42.63;32.28;;;;;;;;;;10331943;28;20100;-65
2023/02/14 22:56:37;;;;;;;84.82;57.17;;;;;;;;;;10332949;28;20075;-67
2023/02/14 23:01:36;;;;;;;30.10;22.65;;;;;;;;;;10332263;28;20076;-67
2023/02/14 23:06:35;;;;;;;30.92;24.33;;;;;;;;;;10330633;28;20075;-66
2023/02/14 23:11:36;;;;;;;28.25;21.45;;;;;;;;;;10331317;28;20076;-66
2023/02/14 23:21:55;;;;;;;;;;;;;;;;;;10332988;28;20115;-67
2023/02/14 23:26:55;;;;;;;27.50;21.98;;;;;;;;;;10330292;28;19967;-66
2023/02/14 23:31:53;;;;;;;27.63;21.52;;;;;;;;;;10332978;28;20095;-66
2023/02/14 23:36:52;;;;;;;28.90;21.75;;;;;;;;;;10330053;28;20087;-66
2023/02/14 23:41:50;;;;;;;29.63;21.33;;;;;;;;;;10332030;28;20078;-67
2023/02/14 23:46:50;;;;;;;25.13;19.35;;;;;;;;;;10329675;28;20537;-67
2023/02/14 23:51:49;;;;;;;25.13;19.23;;;;;;;;;;10331111;28;20070;-67
2023/02/14 23:56:48;;;;;;;25.77;19.92;;;;;;;;;;10330201;28;20076;-67
